sensor_id;sensor_type;location;lat;lon;timestamp;pressure;altitude;pressure_sealevel;temperature;humidity
68230;BME280;55048;52.220;5.160;2023-03-14T00:01:55;98669.81;;;11.68;73.68
68230;BME280;55048;52.220;5.160;2023-03-14T00:04:20;98710.16;;;11.75;74.16
68230;BME280;55048;52.220;5.160;2023-03-14T00:06:46;98664.00;;;11.52;73.94
68230;BME280;55048;52.220;5.160;2023-03-14T00:09:12;98630.56;;;11.32;73.77
68230;BME280;55048;52.220;5.160;2023-03-14T00:11:38;98580.72;;;11.10;73.96
68230;BME280;55048;52.220;5.160;2023-03-14T00:14:03;98481.34;;;10.46;73.59
68230;BME280;55048;52.220;5.160;2023-03-14T00:16:29;98682.66;;;11.66;74.45
68230;BME280;55048;52.220;5.160;2023-03-14T00:18:54;98698.13;;;11.64;74.74
68230;BME280;55048;52.220;5.160;2023-03-14T00:21:19;98638.44;;;11.37;74.12
68230;BME280;55048;52.220;5.160;2023-03-14T00:23:45;98736.22;;;12.06;74.04
68230;BME280;55048;52.220;5.160;2023-03-14T00:26:16;98723.59;;;11.97;74.04
68230;BME280;55048;52.220;5.160;2023-03-14T00:28:43;98732.66;;;12.10;73.83
68230;BME280;55048;52.220;5.160;2023-03-14T00:31:11;98734.34;;;12.06;74.15
68230;BME280;55048;52.220;5.160;2023-03-14T00:33:36;98755.66;;;12.06;74.05
68230;BME280;55048;52.220;5.160;2023-03-14T00:36:07;98722.91;;;12.06;74.42
68230;BME280;55048;52.220;5.160;2023-03-14T00:38:34;98728.53;;;12.04;74.64
68230;BME280;55048;52.220;5.160;2023-03-14T00:41:04;98722.91;;;12.06;74.75
68230;BME280;55048;52.220;5.160;2023-03-14T00:43:29;98676.22;;;11.81;74.71
68230;BME280;55048;52.220;5.160;2023-03-14T00:45:56;98730.59;;;12.07;74.99
68230;BME280;55048;52.220;5.160;2023-03-14T00:48:25;98734.06;;;11.94;75.35
68230;BME280;55048;52.220;5.160;2023-03-14T00:50:51;98731.78;;;12.01;75.35
68230;BME280;55048;52.220;5.160;2023-03-14T00:53:17;98740.88;;;12.00;75.30
68230;BME280;55048;52.220;5.160;2023-03-14T00:55:44;98566.38;;;10.79;75.52
68230;BME280;55048;52.220;5.160;2023-03-14T00:58:11;98745.00;;;11.92;75.76
68230;BME280;55048;52.220;5.160;2023-03-14T01:00:37;98639.06;;;11.34;75.37
68230;BME280;55048;52.220;5.160;2023-03-14T01:03:03;98721.59;;;11.75;75.44
68230;BME280;55048;52.220;5.160;2023-03-14T01:05:29;98741.56;;;11.92;76.07
68230;BME280;55048;52.220;5.160;2023-03-14T01:07:55;98707.69;;;11.65;76.96
68230;BME280;55048;52.220;5.160;2023-03-14T01:10:20;98731.75;;;11.73;78.01
68230;BME280;55048;52.220;5.160;2023-03-14T01:12:46;98640.72;;;11.16;78.73
68230;BME280;55048;52.220;5.160;2023-03-14T01:15:11;98555.16;;;10.49;79.60
68230;BME280;55048;52.220;5.160;2023-03-14T01:17:37;98736.38;;;11.68;79.18
68230;BME280;55048;52.220;5.160;2023-03-14T01:20:06;98727.09;;;11.65;80.16
68230;BME280;55048;52.220;5.160;2023-03-14T01:22:35;98733.13;;;11.57;80.65
68230;BME280;55048;52.220;5.160;2023-03-14T01:25:01;98734.41;;;11.60;80.71
68230;BME280;55048;52.220;5.160;2023-03-14T01:27:26;98744.84;;;11.56;81.45
68230;BME280;55048;52.220;5.160;2023-03-14T01:29:52;98519.81;;;9.97;82.52
68230;BME280;55048;52.220;5.160;2023-03-14T01:32:18;98721.53;;;11.20;84.45
68230;BME280;55048;52.220;5.160;2023-03-14T01:34:43;98682.94;;;10.71;85.45
68230;BME280;55048;52.220;5.160;2023-03-14T01:37:09;98739.06;;;11.21;86.18
68230;BME280;55048;52.220;5.160;2023-03-14T01:39:36;98679.13;;;10.78;86.55
68230;BME280;55048;52.220;5.160;2023-03-14T01:42:01;98703.38;;;10.90;87.18
68230;BME280;55048;52.220;5.160;2023-03-14T01:44:27;98621.69;;;10.44;87.29
68230;BME280;55048;52.220;5.160;2023-03-14T01:46:52;98735.19;;;11.14;87.43
68230;BME280;55048;52.220;5.160;2023-03-14T01:49:22;98732.25;;;11.15;87.90
68230;BME280;55048;52.220;5.160;2023-03-14T01:52:11;98625.16;;;10.44;87.87
68230;BME280;55048;52.220;5.160;2023-03-14T01:54:40;98714.25;;;10.93;88.32
68230;BME280;55048;52.220;5.160;2023-03-14T01:59:46;98632.31;;;10.44;87.80
68230;BME280;55048;52.220;5.160;2023-03-14T02:02:14;98708.38;;;11.10;87.40
68230;BME280;55048;52.220;5.160;2023-03-14T02:04:41;98660.66;;;10.67;88.19
68230;BME280;55048;52.220;5.160;2023-03-14T02:07:20;98710.00;;;10.92;88.02
68230;BME280;55048;52.220;5.160;2023-03-14T02:09:58;98679.19;;;10.91;87.17
68230;BME280;55048;52.220;5.160;2023-03-14T02:12:27;98599.78;;;10.33;87.00
68230;BME280;55048;52.220;5.160;2023-03-14T02:15:12;98670.31;;;10.96;86.40
68230;BME280;55048;52.220;5.160;2023-03-14T02:18:01;98530.97;;;9.99;86.56
68230;BME280;55048;52.220;5.160;2023-03-14T02:21:08;98700.50;;;11.05;87.20
68230;BME280;55048;52.220;5.160;2023-03-14T02:26:43;98675.53;;;10.87;86.60
68230;BME280;55048;52.220;5.160;2023-03-14T02:29:10;98681.84;;;10.91;86.36
68230;BME280;55048;52.220;5.160;2023-03-14T02:31:36;98640.91;;;10.73;86.06
68230;BME280;55048;52.220;5.160;2023-03-14T02:34:02;98697.16;;;11.13;85.92
68230;BME280;55048;52.220;5.160;2023-03-14T02:36:29;98661.13;;;10.88;86.05
68230;BME280;55048;52.220;5.160;2023-03-14T02:39:03;98687.81;;;11.16;85.85
68230;BME280;55048;52.220;5.160;2023-03-14T02:41:33;98686.22;;;11.15;85.93
68230;BME280;55048;52.220;5.160;2023-03-14T02:44:03;98682.28;;;11.12;86.15
68230;BME280;55048;52.220;5.160;2023-03-14T02:46:28;98705.81;;;11.05;86.51
68230;BME280;55048;52.220;5.160;2023-03-14T02:49:02;98639.91;;;10.69;86.44
68230;BME280;55048;52.220;5.160;2023-03-14T02:51:30;98634.72;;;10.78;86.02
68230;BME280;55048;52.220;5.160;2023-03-14T02:53:56;98671.59;;;10.98;85.87
68230;BME280;55048;52.220;5.160;2023-03-14T02:56:23;98621.38;;;10.64;86.43
68230;BME280;55048;52.220;5.160;2023-03-14T02:58:49;98533.75;;;10.08;86.56
68230;BME280;55048;52.220;5.160;2023-03-14T03:01:29;98632.22;;;10.68;86.74
68230;BME280;55048;52.220;5.160;2023-03-14T03:03:55;98650.28;;;10.85;86.42
68230;BME280;55048;52.220;5.160;2023-03-14T03:06:20;98685.16;;;10.83;86.38
68230;BME280;55048;52.220;5.160;2023-03-14T03:08:46;98630.28;;;10.73;86.48
68230;BME280;55048;52.220;5.160;2023-03-14T03:11:11;98620.50;;;10.69;86.31
68230;BME280;55048;52.220;5.160;2023-03-14T03:13:37;98673.91;;;11.05;86.32
68230;BME280;55048;52.220;5.160;2023-03-14T03:16:04;98656.91;;;10.87;86.65
68230;BME280;55048;52.220;5.160;2023-03-14T03:18:30;98595.91;;;10.44;86.33
68230;BME280;55048;52.220;5.160;2023-03-14T03:21:00;98622.78;;;10.76;86.16
68230;BME280;55048;52.220;5.160;2023-03-14T03:23:26;98659.97;;;10.94;87.36
68230;BME280;55048;52.220;5.160;2023-03-14T03:25:51;98642.88;;;10.82;87.23
68230;BME280;55048;52.220;5.160;2023-03-14T03:28:17;98674.56;;;10.97;86.78
68230;BME280;55048;52.220;5.160;2023-03-14T03:30:44;98652.69;;;11.00;86.77
68230;BME280;55048;52.220;5.160;2023-03-14T03:33:10;98654.66;;;10.94;87.29
68230;BME280;55048;52.220;5.160;2023-03-14T03:35:42;98616.34;;;10.63;87.46
68230;BME280;55048;52.220;5.160;2023-03-14T03:38:08;98544.38;;;10.27;86.99
68230;BME280;55048;52.220;5.160;2023-03-14T03:40:33;98630.75;;;10.76;86.81
68230;BME280;55048;52.220;5.160;2023-03-14T03:42:59;98624.22;;;10.87;86.70
68230;BME280;55048;52.220;5.160;2023-03-14T03:45:25;98623.47;;;10.81;86.34
68230;BME280;55048;52.220;5.160;2023-03-14T03:47:54;98647.75;;;10.93;86.90
68230;BME280;55048;52.220;5.160;2023-03-14T03:50:19;98563.03;;;10.40;86.50
68230;BME280;55048;52.220;5.160;2023-03-14T03:52:44;98584.59;;;10.53;86.92
68230;BME280;55048;52.220;5.160;2023-03-14T03:55:10;98604.56;;;10.69;86.28
68230;BME280;55048;52.220;5.160;2023-03-14T03:57:35;98652.41;;;11.02;86.25
68230;BME280;55048;52.220;5.160;2023-03-14T04:00:01;98608.25;;;10.87;85.71
68230;BME280;55048;52.220;5.160;2023-03-14T04:02:26;98648.09;;;11.06;86.07
68230;BME280;55048;52.220;5.160;2023-03-14T04:04:52;98490.47;;;10.07;85.96
68230;BME280;55048;52.220;5.160;2023-03-14T04:07:17;98585.94;;;10.69;85.90
68230;BME280;55048;52.220;5.160;2023-03-14T04:09:43;98651.44;;;11.11;85.52
68230;BME280;55048;52.220;5.160;2023-03-14T04:12:30;98633.41;;;11.08;85.35
68230;BME280;55048;52.220;5.160;2023-03-14T04:15:04;98626.28;;;11.04;85.26
68230;BME280;55048;52.220;5.160;2023-03-14T04:17:30;98527.41;;;10.41;85.10
68230;BME280;55048;52.220;5.160;2023-03-14T04:19:55;98620.50;;;11.02;85.41
68230;BME280;55048;52.220;5.160;2023-03-14T04:22:29;98603.00;;;10.82;85.82
68230;BME280;55048;52.220;5.160;2023-03-14T04:24:55;98623.22;;;10.83;85.95
68230;BME280;55048;52.220;5.160;2023-03-14T04:27:20;98614.44;;;10.82;85.75
68230;BME280;55048;52.220;5.160;2023-03-14T04:29:47;98552.81;;;10.47;85.90
68230;BME280;55048;52.220;5.160;2023-03-14T04:32:15;98639.47;;;10.95;85.80
68230;BME280;55048;52.220;5.160;2023-03-14T04:34:41;98617.88;;;10.83;85.52
68230;BME280;55048;52.220;5.160;2023-03-14T04:37:06;98604.84;;;10.67;86.19
68230;BME280;55048;52.220;5.160;2023-03-14T04:39:37;98528.38;;;10.32;85.51
68230;BME280;55048;52.220;5.160;2023-03-14T04:42:09;98552.34;;;10.59;85.26
68230;BME280;55048;52.220;5.160;2023-03-14T04:44:36;98586.06;;;10.78;85.69
68230;BME280;55048;52.220;5.160;2023-03-14T04:47:02;98567.22;;;10.60;86.21
68230;BME280;55048;52.220;5.160;2023-03-14T04:49:28;98608.69;;;10.75;87.03
68230;BME280;55048;52.220;5.160;2023-03-14T04:51:53;98384.81;;;9.39;87.79
68230;BME280;55048;52.220;5.160;2023-03-14T04:54:21;98484.75;;;10.00;87.89
68230;BME280;55048;52.220;5.160;2023-03-14T04:56:50;98646.00;;;11.03;88.71
68230;BME280;55048;52.220;5.160;2023-03-14T04:59:16;98648.41;;;10.85;89.64
68230;BME280;55048;52.220;5.160;2023-03-14T05:01:42;98453.34;;;9.51;91.51
68230;BME280;55048;52.220;5.160;2023-03-14T05:04:29;98587.19;;;10.58;91.36
68230;BME280;55048;52.220;5.160;2023-03-14T05:07:15;98603.59;;;10.46;92.43
68230;BME280;55048;52.220;5.160;2023-03-14T05:09:47;98649.97;;;10.72;92.28
68230;BME280;55048;52.220;5.160;2023-03-14T05:12:19;98649.03;;;10.63;95.37
68230;BME280;55048;52.220;5.160;2023-03-14T05:15:08;98586.66;;;10.23;93.81
68230;BME280;55048;52.220;5.160;2023-03-14T05:17:42;98504.91;;;9.82;93.52
68230;BME280;55048;52.220;5.160;2023-03-14T05:20:30;98585.81;;;10.28;94.40
68230;BME280;55048;52.220;5.160;2023-03-14T05:23:14;98625.69;;;10.60;94.46
68230;BME280;55048;52.220;5.160;2023-03-14T05:25:58;98545.22;;;10.22;94.85
68230;BME280;55048;52.220;5.160;2023-03-14T05:28:52;98582.34;;;10.46;94.87
68230;BME280;55048;52.220;5.160;2023-03-14T05:31:28;98597.25;;;10.61;95.13
68230;BME280;55048;52.220;5.160;2023-03-14T05:34:20;98553.84;;;10.33;94.85
68230;BME280;55048;52.220;5.160;2023-03-14T05:36:55;98607.13;;;10.74;95.00
68230;BME280;55048;52.220;5.160;2023-03-14T05:39:50;98566.47;;;10.41;95.56
68230;BME280;55048;52.220;5.160;2023-03-14T05:42:28;98598.91;;;10.57;95.49
68230;BME280;55048;52.220;5.160;2023-03-14T05:45:12;98585.44;;;10.34;95.98
68230;BME280;55048;52.220;5.160;2023-03-14T05:47:56;98559.56;;;10.21;95.71
68230;BME280;55048;52.220;5.160;2023-03-14T05:50:34;98607.09;;;10.60;96.10
68230;BME280;55048;52.220;5.160;2023-03-14T05:53:10;98625.91;;;10.64;96.45
68230;BME280;55048;52.220;5.160;2023-03-14T05:55:52;98587.03;;;10.35;96.19
68230;BME280;55048;52.220;5.160;2023-03-14T05:58:34;98589.66;;;10.16;96.67
68230;BME280;55048;52.220;5.160;2023-03-14T06:01:24;98630.22;;;10.60;97.35
68230;BME280;55048;52.220;5.160;2023-03-14T06:04:08;98580.28;;;10.24;97.35
68230;BME280;55048;52.220;5.160;2023-03-14T06:06:33;98622.13;;;10.32;98.37
68230;BME280;55048;52.220;5.160;2023-03-14T06:08:59;98603.38;;;10.05;99.58
68230;BME280;55048;52.220;5.160;2023-03-14T06:11:25;98633.03;;;10.12;100.00
68230;BME280;55048;52.220;5.160;2023-03-14T06:13:51;98565.09;;;9.68;98.38
68230;BME280;55048;52.220;5.160;2023-03-14T06:16:16;98559.41;;;9.56;98.68
68230;BME280;55048;52.220;5.160;2023-03-14T06:18:42;98540.03;;;9.36;97.53
68230;BME280;55048;52.220;5.160;2023-03-14T06:21:09;98636.47;;;9.93;97.46
68230;BME280;55048;52.220;5.160;2023-03-14T06:23:36;98686.94;;;9.88;96.40
68230;BME280;55048;52.220;5.160;2023-03-14T06:26:02;98626.66;;;9.22;95.16
68230;BME280;55048;52.220;5.160;2023-03-14T06:28:28;98676.56;;;9.44;94.30
68230;BME280;55048;52.220;5.160;2023-03-14T06:30:59;98743.34;;;9.80;94.63
68230;BME280;55048;52.220;5.160;2023-03-14T06:33:24;98716.25;;;9.54;94.67
68230;BME280;55048;52.220;5.160;2023-03-14T06:35:50;98750.41;;;9.66;93.97
68230;BME280;55048;52.220;5.160;2023-03-14T06:38:15;98770.22;;;9.74;93.89
68230;BME280;55048;52.220;5.160;2023-03-14T06:40:41;98642.34;;;8.89;94.00
68230;BME280;55048;52.220;5.160;2023-03-14T06:43:11;98728.41;;;9.31;93.96
68230;BME280;55048;52.220;5.160;2023-03-14T06:45:38;98741.22;;;9.53;93.56
68230;BME280;55048;52.220;5.160;2023-03-14T06:48:04;98720.66;;;9.11;93.79
68230;BME280;55048;52.220;5.160;2023-03-14T06:50:36;98659.16;;;8.75;94.18
68230;BME280;55048;52.220;5.160;2023-03-14T06:53:02;98585.38;;;8.18;94.24
68230;BME280;55048;52.220;5.160;2023-03-14T06:55:29;98821.03;;;9.62;94.45
68230;BME280;55048;52.220;5.160;2023-03-14T06:57:54;98612.56;;;8.29;93.88
68230;BME280;55048;52.220;5.160;2023-03-14T07:00:20;98787.50;;;9.08;95.61
68230;BME280;55048;52.220;5.160;2023-03-14T07:02:46;98802.06;;;9.10;93.74
68230;BME280;55048;52.220;5.160;2023-03-14T07:05:31;98826.31;;;9.28;94.09
68230;BME280;55048;52.220;5.160;2023-03-14T07:07:57;98826.16;;;9.19;93.27
68230;BME280;55048;52.220;5.160;2023-03-14T07:10:22;98796.13;;;8.84;93.54
68230;BME280;55048;52.220;5.160;2023-03-14T07:12:49;98802.78;;;8.82;92.97
68230;BME280;55048;52.220;5.160;2023-03-14T07:15:14;98822.47;;;8.65;93.37
68230;BME280;55048;52.220;5.160;2023-03-14T07:17:40;98893.31;;;9.09;92.71
68230;BME280;55048;52.220;5.160;2023-03-14T07:20:06;98884.34;;;8.95;92.05
68230;BME280;55048;52.220;5.160;2023-03-14T07:22:33;98848.81;;;8.31;91.52
68230;BME280;55048;52.220;5.160;2023-03-14T07:24:58;98944.06;;;8.82;91.35
68230;BME280;55048;52.220;5.160;2023-03-14T07:27:24;98683.69;;;7.06;91.86
68230;BME280;55048;52.220;5.160;2023-03-14T07:29:50;98903.34;;;8.32;91.15
68230;BME280;55048;52.220;5.160;2023-03-14T07:32:16;98919.81;;;8.39;90.93
68230;BME280;55048;52.220;5.160;2023-03-14T07:34:42;98818.50;;;7.52;91.03
68230;BME280;55048;52.220;5.160;2023-03-14T07:37:08;98969.03;;;8.51;91.57
68230;BME280;55048;52.220;5.160;2023-03-14T07:39:34;98951.59;;;8.39;90.91
68230;BME280;55048;52.220;5.160;2023-03-14T07:42:05;98786.50;;;7.33;89.73
68230;BME280;55048;52.220;5.160;2023-03-14T07:44:56;99016.44;;;8.57;90.25
68230;BME280;55048;52.220;5.160;2023-03-14T07:47:21;98914.53;;;7.78;90.90
68230;BME280;55048;52.220;5.160;2023-03-14T07:49:47;99002.69;;;8.19;91.74
68230;BME280;55048;52.220;5.160;2023-03-14T07:52:12;98952.63;;;7.67;91.40
68230;BME280;55048;52.220;5.160;2023-03-14T07:54:37;99003.47;;;7.95;91.71
68230;BME280;55048;52.220;5.160;2023-03-14T07:57:03;99028.56;;;7.66;90.74
68230;BME280;55048;52.220;5.160;2023-03-14T07:59:29;99089.91;;;7.58;91.30
68230;BME280;55048;52.220;5.160;2023-03-14T08:01:54;99102.69;;;7.77;91.22
68230;BME280;55048;52.220;5.160;2023-03-14T08:04:19;99075.81;;;7.37;90.99
68230;BME280;55048;52.220;5.160;2023-03-14T08:06:45;99132.25;;;7.58;90.85
68230;BME280;55048;52.220;5.160;2023-03-14T08:09:10;99149.59;;;7.39;90.79
68230;BME280;55048;52.220;5.160;2023-03-14T08:11:36;99117.47;;;7.15;91.01
68230;BME280;55048;52.220;5.160;2023-03-14T08:14:02;99176.13;;;7.54;89.94
68230;BME280;55048;52.220;5.160;2023-03-14T08:16:27;99175.81;;;7.46;90.18
68230;BME280;55048;52.220;5.160;2023-03-14T08:18:53;98997.53;;;6.31;89.43
68230;BME280;55048;52.220;5.160;2023-03-14T08:21:18;99005.88;;;6.18;88.60
68230;BME280;55048;52.220;5.160;2023-03-14T08:23:43;99210.44;;;7.39;87.31
68230;BME280;55048;52.220;5.160;2023-03-14T08:26:09;99224.84;;;7.58;86.80
68230;BME280;55048;52.220;5.160;2023-03-14T08:28:34;99048.69;;;6.25;86.63
68230;BME280;55048;52.220;5.160;2023-03-14T08:31:00;99093.41;;;6.37;87.63
68230;BME280;55048;52.220;5.160;2023-03-14T08:33:27;99183.13;;;7.28;87.42
68230;BME280;55048;52.220;5.160;2023-03-14T08:35:58;99268.16;;;7.89;86.64
68230;BME280;55048;52.220;5.160;2023-03-14T08:38:25;99027.72;;;6.13;86.24
68230;BME280;55048;52.220;5.160;2023-03-14T08:40:58;99311.44;;;7.73;86.91
68230;BME280;55048;52.220;5.160;2023-03-14T08:43:23;99259.66;;;7.45;85.54
68230;BME280;55048;52.220;5.160;2023-03-14T08:45:49;99226.53;;;6.95;84.36
68230;BME280;55048;52.220;5.160;2023-03-14T08:48:14;99299.19;;;7.57;84.48
68230;BME280;55048;52.220;5.160;2023-03-14T08:50:40;99298.13;;;7.58;83.92
68230;BME280;55048;52.220;5.160;2023-03-14T08:53:05;99044.34;;;5.87;83.61
68230;BME280;55048;52.220;5.160;2023-03-14T08:55:30;99311.44;;;7.73;83.54
68230;BME280;55048;52.220;5.160;2023-03-14T08:57:56;99182.38;;;6.63;83.07
68230;BME280;55048;52.220;5.160;2023-03-14T09:00:21;99326.88;;;7.49;80.61
68230;BME280;55048;52.220;5.160;2023-03-14T09:02:47;99278.28;;;7.23;81.85
68230;BME280;55048;52.220;5.160;2023-03-14T09:05:13;99379.44;;;7.73;80.20
68230;BME280;55048;52.220;5.160;2023-03-14T09:07:39;99341.13;;;7.43;81.44
68230;BME280;55048;52.220;5.160;2023-03-14T09:10:07;99369.28;;;7.59;81.37
68230;BME280;55048;52.220;5.160;2023-03-14T09:12:32;99374.47;;;7.44;80.02
68230;BME280;55048;52.220;5.160;2023-03-14T09:14:58;99326.81;;;7.12;80.86
68230;BME280;55048;52.220;5.160;2023-03-14T09:17:23;99164.44;;;6.11;80.18
68230;BME280;55048;52.220;5.160;2023-03-14T09:19:48;99377.59;;;7.41;79.72
68230;BME280;55048;52.220;5.160;2023-03-14T09:22:14;99224.94;;;6.40;80.01
68230;BME280;55048;52.220;5.160;2023-03-14T09:24:40;99478.16;;;7.73;80.48
68230;BME280;55048;52.220;5.160;2023-03-14T09:27:06;99267.84;;;6.08;80.59
68230;BME280;55048;52.220;5.160;2023-03-14T09:29:32;99433.34;;;7.34;81.05
68230;BME280;55048;52.220;5.160;2023-03-14T09:31:58;99392.19;;;6.95;81.35
68230;BME280;55048;52.220;5.160;2023-03-14T09:34:23;99479.66;;;7.64;80.86
68230;BME280;55048;52.220;5.160;2023-03-14T09:36:48;99229.09;;;5.92;80.72
68230;BME280;55048;52.220;5.160;2023-03-14T09:39:14;99520.63;;;7.83;80.96
68230;BME280;55048;52.220;5.160;2023-03-14T09:41:43;99519.56;;;7.84;81.51
68230;BME280;55048;52.220;5.160;2023-03-14T09:44:16;99521.38;;;7.79;80.73
68230;BME280;55048;52.220;5.160;2023-03-14T09:46:46;99494.84;;;7.74;81.26
68230;BME280;55048;52.220;5.160;2023-03-14T09:49:34;99495.50;;;7.59;81.94
68230;BME280;55048;52.220;5.160;2023-03-14T09:52:07;99375.28;;;6.69;82.13
68230;BME280;55048;52.220;5.160;2023-03-14T09:54:47;99479.00;;;7.03;81.51
68230;BME280;55048;52.220;5.160;2023-03-14T09:57:17;99544.13;;;7.31;82.13
68230;BME280;55048;52.220;5.160;2023-03-14T09:59:45;99588.28;;;7.52;82.75
68230;BME280;55048;52.220;5.160;2023-03-14T10:02:19;99602.31;;;7.53;82.80
68230;BME280;55048;52.220;5.160;2023-03-14T10:04:47;99488.13;;;6.73;82.50
68230;BME280;55048;52.220;5.160;2023-03-14T10:07:18;99554.25;;;7.17;83.09
68230;BME280;55048;52.220;5.160;2023-03-14T10:09:48;99622.38;;;7.71;82.83
68230;BME280;55048;52.220;5.160;2023-03-14T10:12:13;99599.66;;;7.53;82.01
68230;BME280;55048;52.220;5.160;2023-03-14T10:14:49;99601.31;;;7.59;83.15
68230;BME280;55048;52.220;5.160;2023-03-14T10:17:16;99640.59;;;7.89;81.73
68230;BME280;55048;52.220;5.160;2023-03-14T10:19:58;99653.09;;;8.21;81.59
68230;BME280;55048;52.220;5.160;2023-03-14T10:22:26;99616.44;;;7.85;79.60
68230;BME280;55048;52.220;5.160;2023-03-14T10:24:56;99667.03;;;8.11;79.69
68230;BME280;55048;52.220;5.160;2023-03-14T10:27:31;99684.03;;;8.37;78.29
68230;BME280;55048;52.220;5.160;2023-03-14T10:30:05;99704.50;;;8.25;78.09
68230;BME280;55048;52.220;5.160;2023-03-14T10:32:37;99674.88;;;7.79;75.44
68230;BME280;55048;52.220;5.160;2023-03-14T10:35:18;99632.34;;;7.41;73.93
68230;BME280;55048;52.220;5.160;2023-03-14T10:40:14;99683.88;;;7.39;73.82
68230;BME280;55048;52.220;5.160;2023-03-14T10:42:42;99727.50;;;7.75;73.12
68230;BME280;55048;52.220;5.160;2023-03-14T10:47:53;99716.22;;;7.63;71.88
68230;BME280;55048;52.220;5.160;2023-03-14T10:50:30;99775.81;;;7.87;69.54
68230;BME280;55048;52.220;5.160;2023-03-14T10:52:57;99782.13;;;8.03;69.59
68230;BME280;55048;52.220;5.160;2023-03-14T10:55:25;99732.50;;;7.55;67.96
68230;BME280;55048;52.220;5.160;2023-03-14T10:57:51;99778.38;;;7.60;67.13
68230;BME280;55048;52.220;5.160;2023-03-14T11:00:22;99781.50;;;7.96;66.83
68230;BME280;55048;52.220;5.160;2023-03-14T11:03:05;99580.16;;;6.59;66.22
68230;BME280;55048;52.220;5.160;2023-03-14T11:08:04;99786.13;;;8.06;63.45
68230;BME280;55048;52.220;5.160;2023-03-14T11:10:34;99851.75;;;8.59;63.42
68230;BME280;55048;52.220;5.160;2023-03-14T11:13:17;99816.81;;;8.40;63.60
68230;BME280;55048;52.220;5.160;2023-03-14T11:21:12;99895.59;;;8.94;60.53
68230;BME280;55048;52.220;5.160;2023-03-14T11:28:49;99919.06;;;8.58;58.28
68230;BME280;55048;52.220;5.160;2023-03-14T11:31:33;99925.25;;;8.47;55.83
68230;BME280;55048;52.220;5.160;2023-03-14T11:34:20;99929.97;;;8.28;54.02
68230;BME280;55048;52.220;5.160;2023-03-14T11:37:07;99914.41;;;8.32;53.42
68230;BME280;55048;52.220;5.160;2023-03-14T11:39:44;99767.47;;;7.57;50.98
68230;BME280;55048;52.220;5.160;2023-03-14T11:42:15;99913.13;;;8.51;51.07
68230;BME280;55048;52.220;5.160;2023-03-14T11:44:43;99961.59;;;8.68;49.74
68230;BME280;55048;52.220;5.160;2023-03-14T11:47:14;99970.03;;;8.87;49.70
68230;BME280;55048;52.220;5.160;2023-03-14T11:50:13;99974.09;;;8.95;51.73
68230;BME280;55048;52.220;5.160;2023-03-14T11:52:56;99971.88;;;9.09;51.37
68230;BME280;55048;52.220;5.160;2023-03-14T11:55:27;99991.75;;;9.28;51.84
68230;BME280;55048;52.220;5.160;2023-03-14T11:58:01;99979.03;;;9.08;51.80
68230;BME280;55048;52.220;5.160;2023-03-14T12:00:28;99968.38;;;9.03;51.23
68230;BME280;55048;52.220;5.160;2023-03-14T12:08:19;100020.84;;;9.23;49.36
68230;BME280;55048;52.220;5.160;2023-03-14T12:11:03;99967.03;;;9.01;49.60
68230;BME280;55048;52.220;5.160;2023-03-14T12:13:36;100013.84;;;9.12;49.18
68230;BME280;55048;52.220;5.160;2023-03-14T12:18:52;100013.28;;;9.10;49.00
68230;BME280;55048;52.220;5.160;2023-03-14T12:21:18;100040.75;;;9.20;48.82
68230;BME280;55048;52.220;5.160;2023-03-14T12:23:55;99988.63;;;9.09;48.50
68230;BME280;55048;52.220;5.160;2023-03-14T12:26:26;99921.50;;;8.65;47.17
68230;BME280;55048;52.220;5.160;2023-03-14T12:29:11;100067.75;;;9.17;46.19
68230;BME280;55048;52.220;5.160;2023-03-14T12:31:52;100072.88;;;9.02;44.89
68230;BME280;55048;52.220;5.160;2023-03-14T12:34:39;100018.25;;;8.84;44.91
68230;BME280;55048;52.220;5.160;2023-03-14T12:37:14;100078.13;;;9.19;45.64
68230;BME280;55048;52.220;5.160;2023-03-14T12:40:02;99937.00;;;8.17;45.81
68230;BME280;55048;52.220;5.160;2023-03-14T12:45:33;100068.91;;;8.49;46.15
68230;BME280;55048;52.220;5.160;2023-03-14T12:50:54;100105.59;;;8.57;46.13
68230;BME280;55048;52.220;5.160;2023-03-14T12:56:24;100114.34;;;8.91;45.66
68230;BME280;55048;52.220;5.160;2023-03-14T13:01:21;100085.91;;;8.70;46.74
68230;BME280;55048;52.220;5.160;2023-03-14T13:03:52;100103.09;;;8.84;46.59
68230;BME280;55048;52.220;5.160;2023-03-14T13:06:46;100151.84;;;9.17;46.52
68230;BME280;55048;52.220;5.160;2023-03-14T13:12:11;100154.88;;;9.26;44.53
68230;BME280;55048;52.220;5.160;2023-03-14T13:14:45;100152.19;;;9.04;45.27
68230;BME280;55048;52.220;5.160;2023-03-14T13:17:16;100073.75;;;8.24;45.33
68230;BME280;55048;52.220;5.160;2023-03-14T13:19:50;100146.09;;;8.69;45.84
68230;BME280;55048;52.220;5.160;2023-03-14T13:22:23;100147.22;;;8.74;46.22
68230;BME280;55048;52.220;5.160;2023-03-14T13:24:50;100184.63;;;8.60;45.06
68230;BME280;55048;52.220;5.160;2023-03-14T13:27:20;100119.00;;;8.51;45.87
68230;BME280;55048;52.220;5.160;2023-03-14T13:29:48;100155.00;;;8.80;46.07
68230;BME280;55048;52.220;5.160;2023-03-14T13:32:20;100198.16;;;9.26;46.31
68230;BME280;55048;52.220;5.160;2023-03-14T13:34:46;100157.97;;;8.84;46.70
68230;BME280;55048;52.220;5.160;2023-03-14T13:37:20;100218.38;;;9.32;47.64
68230;BME280;55048;52.220;5.160;2023-03-14T13:39:53;100217.59;;;9.32;48.07
68230;BME280;55048;52.220;5.160;2023-03-14T13:42:21;100231.34;;;9.12;48.13
68230;BME280;55048;52.220;5.160;2023-03-14T13:44:51;100218.72;;;8.68;48.49
68230;BME280;55048;52.220;5.160;2023-03-14T13:47:18;100248.56;;;8.92;48.73
68230;BME280;55048;52.220;5.160;2023-03-14T13:49:45;100224.28;;;8.84;48.88
68230;BME280;55048;52.220;5.160;2023-03-14T13:54:54;100225.09;;;8.56;48.10
68230;BME280;55048;52.220;5.160;2023-03-14T13:57:20;100213.03;;;8.48;48.35
68230;BME280;55048;52.220;5.160;2023-03-14T13:59:58;100130.00;;;7.85;48.73
68230;BME280;55048;52.220;5.160;2023-03-14T14:02:25;100254.34;;;8.61;48.75
68230;BME280;55048;52.220;5.160;2023-03-14T14:04:50;100245.50;;;8.55;47.82
68230;BME280;55048;52.220;5.160;2023-03-14T14:07:17;100249.03;;;8.44;44.95
68230;BME280;55048;52.220;5.160;2023-03-14T14:09:46;100269.59;;;8.54;44.27